createdAt,value
2018-04-10T00:00:47.443Z,31.87
2018-04-10T00:01:50.744Z,30.70
2018-04-10T00:02:53.271Z,31.50
2018-04-10T00:03:56.575Z,31.58
2018-04-10T00:04:59.881Z,30.62
2018-04-10T00:06:02.440Z,31.48
2018-04-10T00:07:04.984Z,31.70
2018-04-10T00:08:08.281Z,31.33
2018-04-10T00:09:10.856Z,29.15
2018-04-10T00:10:13.393Z,29.63
2018-04-10T00:11:15.910Z,32.15
2018-04-10T00:12:18.472Z,28.77
2018-04-10T00:13:21.004Z,30.10
2018-04-10T00:14:24.291Z,29.70
2018-04-10T00:15:27.584Z,29.52
2018-04-10T00:16:30.242Z,28.77
2018-04-10T00:17:33.538Z,29.20
2018-04-10T00:18:36.068Z,28.50
2018-04-10T00:19:38.624Z,28.25
2018-04-10T00:20:41.940Z,27.90
2018-04-10T00:21:45.279Z,30.17
2018-04-10T00:22:47.799Z,30.55
2018-04-10T00:23:51.096Z,29.80
2018-04-10T00:24:53.631Z,28.58
2018-04-10T00:25:56.936Z,29.23
2018-04-10T00:26:59.512Z,28.45
2018-04-10T00:28:02.048Z,29.80
2018-04-10T00:29:05.347Z,31.55
2018-04-10T00:30:08.648Z,30.45
2018-04-10T00:31:11.191Z,31.80
2018-04-10T00:32:14.491Z,31.15
2018-04-10T00:33:17.018Z,28.85
2018-04-10T00:34:19.539Z,30.27
2018-04-10T00:35:22.148Z,31.08
2018-04-10T00:36:24.683Z,30.23
2018-04-10T00:37:27.204Z,31.50
2018-04-10T00:38:30.503Z,31.30
2018-04-10T00:39:33.033Z,29.85
2018-04-10T00:40:35.600Z,29.02
2018-04-10T00:41:38.114Z,31.17
2018-04-10T00:42:40.634Z,32.13
2018-04-10T00:43:43.169Z,32.45
2018-04-10T00:44:45.735Z,29.95
2018-04-10T00:45:48.274Z,29.92
2018-04-10T00:46:50.791Z,29.83
2018-04-10T00:47:53.366Z,31.17
2018-04-10T00:48:55.893Z,30.70
2018-04-10T00:49:58.419Z,29.85
2018-04-10T00:51:01.707Z,30.70
2018-04-10T00:52:05.008Z,32.35
2018-04-10T00:53:19.415Z,31.52
2018-04-10T00:54:21.940Z,31.02
2018-04-10T00:55:24.470Z,32.97
2018-04-10T00:56:27.018Z,31.73
2018-04-10T00:57:30.371Z,29.75
2018-04-10T00:58:32.910Z,31.75
2018-04-10T00:59:35.441Z,34.15
2018-04-10T01:00:38.740Z,33.25
2018-04-10T01:01:41.264Z,32.15
2018-04-10T01:02:43.815Z,33.03
2018-04-10T01:03:46.356Z,34.33
2018-04-10T01:04:48.887Z,32.80
2018-04-10T01:05:52.210Z,34.10
2018-04-10T01:06:54.769Z,35.28
2018-04-10T01:07:57.322Z,33.25
2018-04-10T01:08:59.876Z,32.63
2018-04-10T01:10:03.175Z,34.40
2018-04-10T01:11:05.702Z,34.22
2018-04-10T01:12:08.274Z,33.78
2018-04-10T01:13:10.806Z,33.10
2018-04-10T01:14:13.328Z,33.25
2018-04-10T01:15:16.631Z,34.17
2018-04-10T01:16:19.163Z,32.45
2018-04-10T01:17:21.722Z,33.35
2018-04-10T01:18:24.247Z,32.47
2018-04-10T01:19:26.775Z,33.50
2018-04-10T01:20:30.071Z,33.53
2018-04-10T01:21:32.631Z,34.10
2018-04-10T01:22:35.996Z,34.88
2018-04-10T01:23:38.506Z,34.92
2018-04-10T01:24:41.062Z,34.88
2018-04-10T01:25:43.583Z,32.53
2018-04-10T01:26:46.110Z,33.00
2018-04-10T01:27:48.638Z,31.05
2018-04-10T01:28:51.923Z,33.08
2018-04-10T01:29:55.263Z,31.80
2018-04-10T01:30:57.784Z,31.02
2018-04-10T01:32:00.311Z,32.28
2018-04-10T01:33:02.844Z,32.88
2018-04-10T01:34:05.422Z,30.40
2018-04-10T01:35:07.976Z,32.15
2018-04-10T01:36:10.505Z,30.75
2018-04-10T01:37:13.797Z,31.50
2018-04-10T01:38:16.329Z,31.85
2018-04-10T01:39:18.886Z,33.58
2018-04-10T01:40:21.415Z,32.67
2018-04-10T01:41:23.976Z,32.75
2018-04-10T01:42:26.507Z,31.55
2018-04-10T01:43:29.815Z,30.20
2018-04-10T01:44:32.346Z,31.80
2018-04-10T01:45:34.907Z,31.70
2018-04-10T01:46:37.427Z,29.85
2018-04-10T01:47:39.951Z,31.20
2018-04-10T01:48:42.480Z,29.42
2018-04-10T01:49:45.044Z,31.05
2018-04-10T01:50:47.577Z,31.67
2018-04-10T01:51:50.143Z,30.52
2018-04-10T01:52:53.427Z,31.55
2018-04-10T01:53:56.736Z,31.30
2018-04-10T01:54:59.275Z,31.80
2018-04-10T01:56:02.562Z,30.27
2018-04-10T01:57:05.123Z,32.08
2018-04-10T01:58:08.450Z,29.63
2018-04-10T01:59:10.982Z,31.42
2018-04-10T02:00:13.516Z,29.58
2018-04-10T02:01:16.047Z,31.85
2018-04-10T02:02:18.584Z,33.58
2018-04-10T02:03:21.155Z,32.65
2018-04-10T02:04:23.683Z,33.97
2018-04-10T02:05:26.218Z,32.05
2018-04-10T02:06:28.743Z,33.65
2018-04-10T02:07:31.314Z,33.13
2018-04-10T02:08:33.846Z,33.35
2018-04-10T02:09:36.373Z,34.97
2018-04-10T02:10:38.899Z,34.60
2018-04-10T02:11:42.190Z,32.53
2018-04-10T02:12:44.764Z,33.13
2018-04-10T02:13:47.287Z,32.35
2018-04-10T02:14:49.841Z,32.55
2018-04-10T02:15:52.370Z,33.42
2018-04-10T02:16:54.936Z,32.67
2018-04-10T02:17:57.473Z,32.95
2018-04-10T02:19:00.789Z,31.90
2018-04-10T02:20:03.359Z,32.20
2018-04-10T02:21:05.895Z,32.03
2018-04-10T02:22:09.192Z,32.50
2018-04-10T02:23:11.720Z,31.90
2018-04-10T02:24:14.260Z,35.00
2018-04-10T02:25:16.815Z,32.42
2018-04-10T02:26:19.355Z,32.65
2018-04-10T02:27:22.692Z,33.30
2018-04-10T02:28:25.249Z,31.20
2018-04-10T02:29:27.768Z,31.73
2018-04-10T02:30:30.347Z,30.67
2018-04-10T02:31:32.875Z,29.98
2018-04-10T02:32:35.411Z,32.97
2018-04-10T02:33:37.935Z,33.00
2018-04-10T02:34:40.467Z,31.92
2018-04-10T02:35:43.031Z,31.80
2018-04-10T02:36:45.571Z,31.35
2018-04-10T02:37:48.097Z,32.78
2018-04-10T02:38:51.388Z,32.13
2018-04-10T02:39:53.916Z,32.90
2018-04-10T02:40:56.478Z,33.78
2018-04-10T02:41:59.008Z,32.90
2018-04-10T02:43:01.527Z,33.50
2018-04-10T02:44:04.840Z,32.67
2018-04-10T02:45:07.407Z,31.90
2018-04-10T02:46:09.931Z,33.03
2018-04-10T02:47:12.466Z,35.47
2018-04-10T02:48:15.000Z,31.40
2018-04-10T02:49:17.526Z,32.80
2018-04-10T02:50:20.091Z,31.42
2018-04-10T02:51:22.634Z,31.20
2018-04-10T02:52:25.151Z,31.30
2018-04-10T02:53:28.449Z,32.75
2018-04-10T02:54:30.971Z,32.08
2018-04-10T02:55:33.530Z,31.90
2018-04-10T02:56:36.059Z,31.92
2018-04-10T02:57:38.590Z,32.15
2018-04-10T02:58:41.916Z,32.67
2018-04-10T02:59:44.438Z,31.20
2018-04-10T03:00:47.006Z,31.83
2018-04-10T03:01:49.535Z,32.00
2018-04-10T03:02:52.058Z,30.83
2018-04-10T03:03:55.356Z,31.75
2018-04-10T03:04:57.883Z,31.70
2018-04-10T03:06:00.545Z,32.15
2018-04-10T03:07:03.076Z,33.75
2018-04-10T03:08:05.615Z,33.83
2018-04-10T03:09:08.408Z,30.30
2018-04-10T03:10:11.091Z,33.58
2018-04-10T03:11:13.909Z,31.25
2018-04-10T03:12:17.255Z,31.70
2018-04-10T03:13:19.993Z,31.58
2018-04-10T03:14:22.554Z,33.58
2018-04-10T03:15:25.080Z,33.53
2018-04-10T03:16:27.659Z,32.45
2018-04-10T03:17:30.178Z,33.20
2018-04-10T03:18:32.713Z,32.47
2018-04-10T03:19:35.246Z,31.23
2018-04-10T03:20:37.771Z,31.17
2018-04-10T03:21:40.330Z,31.02
2018-04-10T03:22:42.863Z,30.92
2018-04-10T03:23:46.194Z,32.15
2018-04-10T03:24:48.718Z,30.73
2018-04-10T03:25:52.005Z,31.37
2018-04-10T03:26:55.292Z,30.45
2018-04-10T03:27:57.828Z,32.15
2018-04-10T03:29:00.392Z,32.45
2018-04-10T03:30:02.910Z,32.50
2018-04-10T03:31:05.451Z,30.42
2018-04-10T03:32:08.754Z,30.60
2018-04-10T03:33:11.284Z,33.10
2018-04-10T03:34:13.855Z,33.13
2018-04-10T03:35:16.386Z,30.62
2018-04-10T03:36:18.908Z,31.85
2018-04-10T03:37:22.226Z,32.15
2018-04-10T03:38:24.788Z,31.17
2018-04-10T03:39:27.306Z,32.85
2018-04-10T03:40:30.641Z,31.65
2018-04-10T03:41:33.167Z,31.00
2018-04-10T03:42:36.454Z,33.15
2018-04-10T03:43:39.742Z,31.08
2018-04-10T03:44:43.064Z,31.30
2018-04-10T03:45:45.596Z,33.35
2018-04-10T03:46:48.179Z,30.40
2018-04-10T03:47:50.758Z,32.42
2018-04-10T03:48:53.256Z,32.58
2018-04-10T03:49:55.784Z,31.23
2018-04-10T03:50:58.305Z,32.50
2018-04-10T03:52:01.638Z,32.10
2018-04-10T03:53:04.163Z,32.40
2018-04-10T03:54:07.511Z,32.78
2018-04-10T03:55:10.090Z,30.40
2018-04-10T03:56:12.624Z,31.00
2018-04-10T03:57:15.138Z,32.03
2018-04-10T03:58:17.672Z,33.47
2018-04-10T03:59:20.974Z,32.60
2018-04-10T04:00:23.538Z,32.35
2018-04-10T04:01:26.068Z,32.75
2018-04-10T04:02:28.592Z,32.95
2018-04-10T04:03:31.889Z,32.67
2018-04-10T04:04:35.181Z,31.92
2018-04-10T04:05:37.757Z,32.42
2018-04-10T04:06:40.283Z,31.87
2018-04-10T04:07:42.808Z,33.13
2018-04-10T04:08:45.326Z,31.90
2018-04-10T04:09:48.623Z,32.42
2018-04-10T04:10:51.947Z,32.90
2018-04-10T04:11:54.474Z,32.50
2018-04-10T04:12:57.766Z,32.50
2018-04-10T04:14:00.298Z,31.27
2018-04-10T04:15:02.873Z,31.95
2018-04-10T04:16:06.207Z,33.05
2018-04-10T04:17:20.628Z,31.85
2018-04-10T04:18:35.052Z,32.15
2018-04-10T04:19:50.247Z,31.62
2018-04-10T04:21:04.615Z,34.63
2018-04-10T04:22:18.947Z,32.47
2018-04-10T04:23:21.510Z,33.78
2018-04-10T04:24:24.048Z,32.30
2018-04-10T04:25:26.580Z,32.03
2018-04-10T04:26:29.103Z,32.47
2018-04-10T04:27:31.624Z,31.15
2018-04-10T04:28:34.963Z,32.20
2018-04-10T04:29:37.495Z,31.83
2018-04-10T04:30:40.803Z,31.92
2018-04-10T04:31:43.333Z,31.27
2018-04-10T04:32:46.623Z,31.35
2018-04-10T04:33:49.956Z,33.03
2018-04-10T04:34:52.510Z,32.08
2018-04-10T04:35:55.669Z,32.47
2018-04-10T04:36:58.194Z,32.05
2018-04-10T04:38:00.722Z,33.53
2018-04-10T04:39:03.257Z,32.50
2018-04-10T04:40:06.548Z,32.53
2018-04-10T04:41:09.103Z,31.90
2018-04-10T04:42:12.402Z,31.00
2018-04-10T04:43:14.968Z,31.35
2018-04-10T04:44:17.499Z,31.33
2018-04-10T04:45:20.048Z,31.37
2018-04-10T04:46:22.572Z,33.22
2018-04-10T04:47:25.156Z,34.03
2018-04-10T04:48:27.677Z,32.35
2018-04-10T04:49:30.962Z,32.75
2018-04-10T04:50:34.251Z,32.65
2018-04-10T04:51:37.548Z,31.65
2018-04-10T04:52:40.120Z,31.35
2018-04-10T04:53:42.656Z,33.47
2018-04-10T04:54:45.991Z,32.70
2018-04-10T04:55:48.517Z,33.25
2018-04-10T04:56:51.808Z,32.63
2018-04-10T04:57:55.135Z,33.55
2018-04-10T04:58:57.653Z,33.15
2018-04-10T05:00:00.978Z,32.85
2018-04-10T05:01:03.507Z,33.45
2018-04-10T05:02:06.804Z,33.33
2018-04-10T05:03:09.331Z,33.10
2018-04-10T05:04:11.851Z,34.17
2018-04-10T05:05:14.413Z,33.33
2018-04-10T05:06:16.948Z,33.40
2018-04-10T05:07:20.240Z,32.05
2018-04-10T05:08:23.559Z,33.30
2018-04-10T05:09:26.088Z,33.47
2018-04-10T05:10:29.415Z,32.45
2018-04-10T05:11:31.938Z,34.38
2018-04-10T05:12:35.243Z,30.35
2018-04-10T05:13:37.769Z,32.33
2018-04-10T05:14:40.338Z,32.13
2018-04-10T05:15:42.871Z,33.25
2018-04-10T05:16:45.400Z,32.30
2018-04-10T05:17:47.933Z,33.47
2018-04-10T05:18:50.469Z,32.80
2018-04-10T05:19:53.039Z,32.30
2018-04-10T05:20:55.571Z,31.50
2018-04-10T05:21:58.088Z,34.50
2018-04-10T05:23:00.662Z,33.25
2018-04-10T05:24:03.183Z,32.85
2018-04-10T05:25:05.743Z,34.05
2018-04-10T05:26:08.310Z,34.05
2018-04-10T05:27:10.845Z,32.85
2018-04-10T05:28:14.131Z,34.42
2018-04-10T05:29:17.419Z,32.20
2018-04-10T05:30:20.725Z,32.38
2018-04-10T05:31:23.292Z,32.80
2018-04-10T05:32:25.815Z,34.28
2018-04-10T05:33:28.383Z,31.83
2018-04-10T05:34:31.680Z,32.67
2018-04-10T05:35:34.979Z,31.30
2018-04-10T05:36:37.515Z,33.90
2018-04-10T05:37:40.038Z,29.98
2018-04-10T05:38:42.603Z,31.90
2018-04-10T05:39:45.139Z,32.40
2018-04-10T05:40:48.423Z,31.60
2018-04-10T05:41:50.955Z,30.17
2018-04-10T05:42:53.479Z,31.12
2018-04-10T05:43:56.043Z,30.17
2018-04-10T05:44:58.570Z,31.12
2018-04-10T05:46:01.863Z,32.92
2018-04-10T05:47:05.198Z,32.70
2018-04-10T05:48:07.715Z,31.92
2018-04-10T05:49:11.039Z,30.65
2018-04-10T05:50:13.600Z,32.70
2018-04-10T05:51:16.124Z,31.62
2018-04-10T05:52:19.423Z,31.70
2018-04-10T05:53:21.955Z,31.48
2018-04-10T05:54:24.485Z,32.88
2018-04-10T05:55:27.051Z,32.35
2018-04-10T05:56:29.589Z,33.15
2018-04-10T05:57:32.125Z,34.25
2018-04-10T05:58:34.689Z,33.50
2018-04-10T05:59:37.224Z,34.83
2018-04-10T06:00:39.740Z,34.08
2018-04-10T06:01:43.036Z,34.85
2018-04-10T06:02:45.562Z,35.88
2018-04-10T06:03:48.122Z,37.10
2018-04-10T06:04:50.669Z,35.70
2018-04-10T06:05:53.185Z,36.13
2018-04-10T06:06:56.480Z,38.88
2018-04-10T06:07:59.782Z,36.67
2018-04-10T06:09:02.351Z,37.20
2018-04-10T06:10:04.876Z,36.10
2018-04-10T06:11:07.447Z,37.50
2018-04-10T06:12:10.749Z,38.00
2018-04-10T06:13:14.053Z,36.53
2018-04-10T06:14:16.587Z,35.55
2018-04-10T06:15:19.880Z,35.45
2018-04-10T06:16:23.215Z,36.20
2018-04-10T06:17:25.747Z,36.60
2018-04-10T06:18:28.298Z,37.03
2018-04-10T06:19:31.627Z,35.80
2018-04-10T06:20:34.156Z,34.83
2018-04-10T06:21:36.683Z,35.58
2018-04-10T06:22:39.213Z,36.97
2018-04-10T06:23:41.738Z,36.92
2018-04-10T06:24:45.071Z,37.92
2018-04-10T06:25:47.599Z,37.50
2018-04-10T06:26:50.884Z,36.08
2018-04-10T06:27:54.166Z,35.67
2018-04-10T06:28:57.571Z,36.38
2018-04-10T06:30:00.122Z,37.30
2018-04-10T06:31:02.645Z,37.60
2018-04-10T06:32:05.190Z,37.72
2018-04-10T06:33:07.712Z,35.00
2018-04-10T06:34:11.004Z,34.97
2018-04-10T06:35:13.571Z,38.05
2018-04-10T06:36:16.095Z,36.53
2018-04-10T06:37:18.694Z,34.85
2018-04-10T06:38:21.198Z,36.92
2018-04-10T06:39:23.766Z,36.63
2018-04-10T06:40:26.289Z,35.90
2018-04-10T06:41:29.623Z,35.45
2018-04-10T06:42:32.149Z,35.65
2018-04-10T06:43:35.439Z,36.10
2018-04-10T06:44:37.966Z,35.53
2018-04-10T06:45:40.490Z,37.17
2018-04-10T06:46:43.059Z,38.70
2018-04-10T06:47:45.588Z,37.85
2018-04-10T06:48:48.875Z,37.53
2018-04-10T06:49:52.171Z,37.85
2018-04-10T06:50:54.698Z,36.50
2018-04-10T06:51:57.270Z,36.08
2018-04-10T06:52:59.822Z,38.97
2018-04-10T06:55:12.060Z,38.38
2018-04-10T06:56:15.365Z,39.30
2018-04-10T06:57:17.911Z,38.85
2018-04-10T06:58:21.240Z,37.58
2018-04-10T06:59:23.777Z,38.20
2018-04-10T07:00:26.295Z,38.17
2018-04-10T07:01:28.823Z,40.20
2018-04-10T07:02:31.373Z,38.45
2018-04-10T07:03:33.945Z,35.75
2018-04-10T07:04:36.474Z,37.55
2018-04-10T07:05:39.004Z,36.90
2018-04-10T07:06:41.527Z,37.17
2018-04-10T07:07:44.055Z,38.28
2018-04-10T07:08:46.615Z,36.72
2018-04-10T07:09:49.928Z,35.83
2018-04-10T07:10:53.259Z,38.80
2018-04-10T07:11:55.779Z,39.17
2018-04-10T07:12:59.083Z,38.47
2018-04-10T07:14:01.617Z,42.05
2018-04-10T07:15:04.182Z,37.80
2018-04-10T07:16:06.703Z,40.25
2018-04-10T07:17:09.225Z,38.10
2018-04-10T07:18:11.752Z,38.83
2018-04-10T07:19:14.280Z,39.63
2018-04-10T07:20:17.607Z,38.47
2018-04-10T07:21:20.142Z,38.97
2018-04-10T07:22:22.672Z,40.80
2018-04-10T07:23:25.227Z,39.58
2018-04-10T07:24:27.771Z,39.25
2018-04-10T07:25:30.327Z,39.70
2018-04-10T07:26:32.851Z,40.95
2018-04-10T07:27:36.146Z,41.45
2018-04-10T07:28:38.679Z,39.55
2018-04-10T07:29:41.207Z,37.63
2018-04-10T07:30:43.776Z,41.63
2018-04-10T07:31:46.310Z,39.70
2018-04-10T07:32:49.770Z,40.08
2018-04-10T07:33:52.300Z,43.40
2018-04-10T07:34:54.831Z,39.90
2018-04-10T07:35:57.398Z,39.53
2018-04-10T07:36:59.959Z,40.00
2018-04-10T07:38:03.284Z,40.58
2018-04-10T07:39:05.806Z,39.35
2018-04-10T07:40:09.103Z,39.05
2018-04-10T07:41:11.667Z,39.75
2018-04-10T07:42:14.240Z,40.78
2018-04-10T07:43:16.767Z,37.92
2018-04-10T07:44:19.296Z,38.70
2018-04-10T07:45:21.819Z,39.22
2018-04-10T07:46:25.124Z,39.08
2018-04-10T07:47:27.695Z,39.58
2018-04-10T07:48:30.223Z,38.25
2018-04-10T07:49:32.751Z,37.60
2018-04-10T07:50:35.271Z,38.33
2018-04-10T07:51:38.563Z,36.92
2018-04-10T07:52:41.116Z,39.28
2018-04-10T07:53:44.454Z,39.75
2018-04-10T07:54:46.984Z,39.40
2018-04-10T07:55:49.516Z,38.83
2018-04-10T07:56:52.042Z,38.03
2018-04-10T07:57:54.575Z,39.55
2018-04-10T07:58:57.138Z,38.20
2018-04-10T08:00:00.437Z,39.17
2018-04-10T08:01:02.969Z,38.92
2018-04-10T08:02:06.274Z,38.50
2018-04-10T08:03:09.559Z,39.15
2018-04-10T08:04:12.115Z,39.50
2018-04-10T08:05:15.401Z,37.30
2018-04-10T08:06:18.719Z,38.65
2018-04-10T08:07:21.252Z,37.92
2018-04-10T08:08:23.829Z,39.13
2018-04-10T08:09:26.391Z,36.90
2018-04-10T08:10:29.678Z,37.47
2018-04-10T08:11:32.959Z,40.33
2018-04-10T08:12:36.281Z,38.42
2018-04-10T08:13:38.812Z,38.45
2018-04-10T08:14:41.340Z,37.63
2018-04-10T08:15:43.874Z,38.80
2018-04-10T08:16:46.403Z,38.72
2018-04-10T08:17:49.716Z,37.65
2018-04-10T08:18:52.252Z,40.35
2018-04-10T08:19:55.543Z,39.13
2018-04-10T08:20:58.113Z,38.50
2018-04-10T08:22:00.651Z,38.58
2018-04-10T08:23:03.170Z,39.03
2018-04-10T08:24:05.696Z,40.67
2018-04-10T08:25:09.038Z,39.78
2018-04-10T08:26:11.568Z,38.58
2018-04-10T08:27:14.088Z,37.97
2018-04-10T08:28:16.617Z,40.17
2018-04-10T08:29:19.179Z,41.20
2018-04-10T08:30:21.719Z,38.00
2018-04-10T08:31:24.251Z,39.97
2018-04-10T08:32:26.800Z,38.97
2018-04-10T08:33:29.339Z,40.78
2018-04-10T08:34:31.896Z,39.63
2018-04-10T08:35:34.423Z,41.53
2018-04-10T08:36:36.951Z,39.05
2018-04-10T08:37:39.474Z,37.13
2018-04-10T08:38:42.803Z,36.10
2018-04-10T08:39:45.329Z,37.83
2018-04-10T08:40:48.632Z,37.80
2018-04-10T08:41:51.205Z,38.75
2018-04-10T08:42:53.761Z,37.63
2018-04-10T08:43:56.295Z,39.38
2018-04-10T08:44:58.829Z,37.97
2018-04-10T08:46:01.364Z,37.22
2018-04-10T08:47:03.928Z,38.65
2018-04-10T08:48:06.463Z,38.80
2018-04-10T08:49:09.756Z,37.70
2018-04-10T08:50:13.051Z,37.05
2018-04-10T08:51:15.584Z,37.78
2018-04-10T08:52:18.152Z,34.95
2018-04-10T08:53:20.689Z,36.63
2018-04-10T08:54:23.219Z,36.78
2018-04-10T08:55:25.751Z,34.45
2018-04-10T08:56:28.279Z,35.53
2018-04-10T08:57:30.835Z,37.13
2018-04-10T08:58:33.407Z,37.13
2018-04-10T08:59:35.936Z,36.10
2018-04-10T09:00:39.225Z,37.30
2018-04-10T09:01:42.511Z,34.42
2018-04-10T09:02:45.794Z,35.88
2018-04-10T09:03:49.128Z,36.17
2018-04-10T09:04:51.655Z,37.10
2018-04-10T09:05:54.176Z,37.15
2018-04-10T09:06:56.726Z,36.50
2018-04-10T09:07:59.254Z,35.85
2018-04-10T09:09:01.777Z,36.35
2018-04-10T09:10:04.343Z,34.67
2018-04-10T09:11:06.876Z,37.60
2018-04-10T09:12:09.407Z,35.70
2018-04-10T09:13:12.714Z,37.33
2018-04-10T09:14:15.243Z,38.55
2018-04-10T09:15:18.576Z,34.30
2018-04-10T09:16:21.112Z,37.10
2018-04-10T09:17:23.671Z,35.28
2018-04-10T09:18:27.011Z,35.63
2018-04-10T09:19:29.539Z,35.45
2018-04-10T09:20:32.080Z,35.88
2018-04-10T09:21:35.378Z,36.78
2018-04-10T09:22:37.919Z,37.58
2018-04-10T09:23:41.319Z,35.55
2018-04-10T09:24:44.602Z,35.17
2018-04-10T09:25:47.905Z,34.13
2018-04-10T09:26:50.435Z,34.80
2018-04-10T09:27:52.972Z,33.47
2018-04-10T09:28:55.532Z,33.38
2018-04-10T09:29:58.067Z,34.65
2018-04-10T09:31:00.635Z,33.45
2018-04-10T09:32:03.163Z,32.35
2018-04-10T09:33:05.705Z,33.53
2018-04-10T09:34:08.240Z,33.55
2018-04-10T09:35:10.839Z,31.50
2018-04-10T09:36:13.376Z,30.02
2018-04-10T09:37:15.912Z,30.90
2018-04-10T09:38:19.207Z,31.40
2018-04-10T09:39:22.552Z,31.50
2018-04-10T09:40:25.127Z,33.78
2018-04-10T09:41:27.667Z,34.43
2018-04-10T09:42:30.211Z,30.63
2018-04-10T09:43:32.748Z,32.50
2018-04-10T09:44:36.079Z,32.60
2018-04-10T09:45:38.642Z,32.43
2018-04-10T09:46:41.182Z,31.73
2018-04-10T09:47:43.719Z,32.80
2018-04-10T09:48:46.252Z,31.93
2018-04-10T09:49:48.787Z,32.20
2018-04-10T09:50:51.354Z,33.07
2018-04-10T09:51:53.916Z,31.60
2018-04-10T09:52:56.459Z,32.83
2018-04-10T09:53:59.002Z,32.63
2018-04-10T09:55:01.540Z,32.27
2018-04-10T09:56:04.097Z,33.43
2018-04-10T09:57:06.623Z,31.90
2018-04-10T09:58:09.159Z,32.10
2018-04-10T09:59:11.699Z,32.13
2018-04-10T10:00:14.218Z,31.37
2018-04-10T10:01:17.547Z,32.33
2018-04-10T10:02:20.080Z,32.03
2018-04-10T10:03:23.456Z,32.37
2018-04-10T10:04:25.995Z,31.50
2018-04-10T10:05:28.534Z,33.07
2018-04-10T10:06:31.112Z,32.50
2018-04-10T10:07:33.636Z,31.70
2018-04-10T10:08:36.932Z,32.00
2018-04-10T10:09:39.463Z,32.07
2018-04-10T10:10:41.994Z,30.27
2018-04-10T10:11:44.543Z,31.97
2018-04-10T10:12:47.081Z,32.33
2018-04-10T10:13:50.417Z,32.73
2018-04-10T10:14:52.943Z,30.47
2018-04-10T10:15:56.810Z,31.63
2018-04-10T10:16:59.347Z,33.03
2018-04-10T10:18:01.883Z,32.33
2018-04-10T10:19:04.464Z,31.23
2018-04-10T10:20:06.990Z,32.57
2018-04-10T10:21:10.283Z,32.40
2018-04-10T10:22:13.577Z,32.10
2018-04-10T10:23:16.108Z,31.37
2018-04-10T10:24:18.691Z,31.20
2018-04-10T10:25:21.979Z,32.40
2018-04-10T10:26:25.280Z,33.70
2018-04-10T10:27:27.812Z,33.50
2018-04-10T10:28:30.343Z,34.07
2018-04-10T10:29:32.902Z,32.33
2018-04-10T10:30:35.434Z,32.40
2018-04-10T10:31:38.768Z,34.30
2018-04-10T10:32:41.292Z,32.40
2018-04-10T10:33:43.821Z,33.10
2018-04-10T10:34:46.375Z,34.93
2018-04-10T10:35:48.916Z,34.63
2018-04-10T10:36:51.435Z,33.00
2018-04-10T10:37:54.728Z,32.80
2018-04-10T10:38:58.029Z,33.10
2018-04-10T10:40:00.596Z,33.57
2018-04-10T10:41:03.138Z,33.13
2018-04-10T10:42:06.424Z,35.77
2018-04-10T10:43:09.720Z,35.70
2018-04-10T10:44:13.040Z,33.73
2018-04-10T10:45:15.569Z,35.57
2018-04-10T10:46:18.879Z,34.07
2018-04-10T10:47:21.412Z,33.60
2018-04-10T10:48:24.708Z,34.47
2018-04-10T10:49:27.276Z,36.13
2018-04-10T10:50:29.803Z,37.10
2018-04-10T10:51:32.335Z,33.83
2018-04-10T10:52:34.863Z,34.00
2018-04-10T10:53:38.192Z,33.43
2018-04-10T10:54:40.727Z,34.83
2018-04-10T10:55:43.267Z,33.87
2018-04-10T10:56:45.799Z,34.63
2018-04-10T10:57:48.367Z,34.63
2018-04-10T10:58:50.892Z,34.10
2018-04-10T10:59:53.428Z,33.40
2018-04-10T11:00:56.007Z,34.03
2018-04-10T11:01:59.309Z,33.63
2018-04-10T11:03:01.877Z,33.80
2018-04-10T11:04:04.415Z,32.43
2018-04-10T11:05:06.963Z,33.33
2018-04-10T11:06:09.499Z,34.50
2018-04-10T11:07:12.028Z,31.13
2018-04-10T11:08:15.356Z,31.77
2018-04-10T11:09:17.897Z,34.50
2018-04-10T11:10:20.423Z,33.33
2018-04-10T11:11:22.940Z,35.50
2018-04-10T11:12:25.467Z,35.10
2018-04-10T11:13:28.798Z,34.10
2018-04-10T11:14:31.442Z,32.17
2018-04-10T11:15:33.999Z,33.77
2018-04-10T11:16:37.291Z,33.87
2018-04-10T11:17:39.821Z,33.60
2018-04-10T11:18:42.361Z,32.50
2018-04-10T11:19:44.920Z,34.60
2018-04-10T11:20:47.456Z,35.67
2018-04-10T11:21:50.042Z,32.90
2018-04-10T11:22:52.584Z,36.20
2018-04-10T11:23:55.879Z,34.90
2018-04-10T11:24:58.411Z,35.47
2018-04-10T11:26:00.947Z,34.00
2018-04-10T11:27:03.512Z,33.47
2018-04-10T11:28:06.050Z,35.50
2018-04-10T11:29:08.583Z,35.03
2018-04-10T11:30:11.875Z,33.30
2018-04-10T11:31:15.167Z,34.83
2018-04-10T11:32:18.494Z,31.80
2018-04-10T11:33:21.028Z,33.23
2018-04-10T11:34:23.556Z,33.80
2018-04-10T11:35:26.080Z,32.63
2018-04-10T11:36:28.619Z,33.10
2018-04-10T11:37:31.201Z,33.60
2018-04-10T11:38:33.737Z,33.07
2018-04-10T11:39:37.032Z,34.47
2018-04-10T11:40:40.314Z,33.27
2018-04-10T11:41:43.608Z,33.00
2018-04-10T11:42:46.166Z,33.53
2018-04-10T11:43:49.468Z,33.57
2018-04-10T11:44:51.997Z,32.90
2018-04-10T11:45:54.515Z,32.83
2018-04-10T11:46:57.034Z,34.50
2018-04-10T11:48:00.354Z,32.80
2018-04-10T11:49:02.932Z,33.73
2018-04-10T11:50:05.459Z,32.87
2018-04-10T11:51:08.756Z,32.40
2018-04-10T11:52:11.299Z,32.70
2018-04-10T11:53:13.830Z,32.33
2018-04-10T11:54:16.407Z,31.90
2018-04-10T11:55:18.935Z,30.93
2018-04-10T11:56:21.464Z,32.30
2018-04-10T11:57:24.040Z,29.47
2018-04-10T11:58:27.331Z,30.20
2018-04-10T11:59:30.619Z,30.57
2018-04-10T12:00:33.952Z,33.53
2018-04-10T12:01:36.474Z,32.50
2018-04-10T12:02:39.038Z,32.50
2018-04-10T12:03:41.571Z,35.03
2018-04-10T12:04:44.117Z,31.87
2018-04-10T12:05:46.687Z,33.00
2018-04-10T12:06:49.214Z,32.73
2018-04-10T12:07:51.756Z,32.10
2018-04-10T12:08:55.056Z,34.67
2018-04-10T12:09:57.601Z,34.03
2018-04-10T12:11:00.932Z,33.50
2018-04-10T12:12:03.499Z,34.17
2018-04-10T12:13:06.034Z,32.70
2018-04-10T12:14:08.566Z,30.73
2018-04-10T12:15:11.095Z,32.63
2018-04-10T12:16:13.627Z,33.50
2018-04-10T12:17:16.968Z,35.70
2018-04-10T12:18:19.497Z,35.63
2018-04-10T12:19:22.035Z,33.70
2018-04-10T12:20:25.334Z,33.87
2018-04-10T12:21:27.859Z,32.67
2018-04-10T12:22:30.427Z,33.80
2018-04-10T12:23:33.755Z,34.40
2018-04-10T12:24:36.292Z,32.03
2018-04-10T12:25:38.815Z,33.50
2018-04-10T12:26:41.347Z,35.70
2018-04-10T12:27:43.911Z,36.40
2018-04-10T12:28:47.241Z,37.20
2018-04-10T12:29:49.763Z,35.20
2018-04-10T12:30:53.059Z,36.50
2018-04-10T12:31:55.591Z,35.90
2018-04-10T12:32:58.151Z,34.73
2018-04-10T12:34:00.695Z,36.60
2018-04-10T12:35:03.228Z,34.90
2018-04-10T12:36:05.795Z,38.00
2018-04-10T12:37:08.322Z,35.80
2018-04-10T12:38:11.631Z,38.97
2018-04-10T12:39:14.167Z,37.00
2018-04-10T12:40:16.696Z,36.40
2018-04-10T12:41:19.267Z,36.17
2018-04-10T12:42:22.567Z,39.30
2018-04-10T12:43:25.094Z,37.07
2018-04-10T12:44:27.615Z,37.00
2018-04-10T12:45:30.228Z,40.03
2018-04-10T12:46:32.784Z,37.30
2018-04-10T12:47:35.339Z,36.70
2018-04-10T12:48:38.628Z,36.73
2018-04-10T12:49:41.920Z,38.97
2018-04-10T12:50:44.486Z,36.13
2018-04-10T12:51:47.020Z,37.30
2018-04-10T12:52:49.539Z,36.50
2018-04-10T12:53:52.076Z,35.70
2018-04-10T12:54:54.613Z,38.30
2018-04-10T12:55:57.176Z,38.73
2018-04-10T12:56:59.703Z,36.30
2018-04-10T12:58:02.220Z,35.87
2018-04-10T12:59:05.514Z,35.17
2018-04-10T13:00:08.805Z,35.27
2018-04-10T13:01:12.153Z,36.00
2018-04-10T13:02:14.726Z,35.70
2018-04-10T13:03:17.218Z,35.93
2018-04-10T13:04:20.514Z,35.47
2018-04-10T13:05:23.044Z,36.30
2018-04-10T13:06:25.595Z,36.63
2018-04-10T13:07:28.112Z,34.57
2018-04-10T13:08:30.635Z,35.67
2018-04-10T13:09:33.223Z,35.23
2018-04-10T13:10:35.739Z,37.00
2018-04-10T13:11:38.262Z,35.87
2018-04-10T13:12:41.602Z,36.30
2018-04-10T13:13:44.144Z,36.07
2018-04-10T13:14:46.679Z,37.53
2018-04-10T13:15:49.979Z,38.10
2018-04-10T13:16:52.520Z,35.90
2018-04-10T13:17:55.855Z,36.80
2018-04-10T13:18:58.384Z,35.27
2018-04-10T13:20:01.689Z,36.37
2018-04-10T13:21:04.206Z,36.03
2018-04-10T13:22:06.735Z,35.63
2018-04-10T13:23:09.300Z,37.00
2018-04-10T13:24:11.821Z,36.33
2018-04-10T13:25:15.107Z,36.57
2018-04-10T13:26:18.405Z,38.10
2018-04-10T13:27:20.934Z,37.80
2018-04-10T13:28:23.494Z,36.30
2018-04-10T13:29:26.018Z,35.37
2018-04-10T13:30:28.575Z,37.13